TAF and METAR

Decoding for American and Canadian METARs and TAFs is not fully implemented.

Could not understand the following METAR

KIPL 192053Z AUTO 07004KT 10SM CLR 31/M01 A2979 RMK AO2 SLP088 T03061011 58029

TAF for Imperial County Airport

KIPL 191735Z 1918/2018 VRB03KT P6SM SKC FM200300 24005KT P6SM SKC FM201100 30007KT P6SM SKC FM201600 36010KT P6SM FEW250
Report created 19. okt 19:35

between 19. okt 20:00 - 20. okt 20:00

wind 3 knots from various directions
Imperial County Airport in United States of America at -17m

Latest 5 airports